PWSweather.com
Personal Weather Stations
Station Observations
WAIROAHB
Wairoa, Northern Hawkes Bay -NZ 4108

WairoaNorthern Hawkes Bay -NZ 4108

Lat: -39.04516934, Lon: 177.4263989

Elevation: 156

Station Type: WS3083

http://wairoa.net/weather/index.htm

Latest ConditionsUpdated 8:20:01 PM GMT+12:12 Monday, Aug 26, 2019
Currently Today's Max Today's Min Today's Average
Temperature 51.1°F10.6°C 66.4°F19.1°C 48.2°F9.0°C 57.6°F14.2°C
Dew Point 40.9°F4.9°C 45.9°F7.7°C 35.0°F1.7°C 40.6°F4.8°C
Winds 3.8 mph NW6.1 kmh NW 18.3 mph -29.5 kmh - - 7.1 mph 11.4 kmh
Wind Gusts 5.4 mph8.7 kmh 28.2 mph45.4 kmh - -
Humidity 68% 72% 33% 54%
Pressure 29.70 in1005.8 mb 29.75 in1007.5 mb 29.59 in1002.0 mb -
Precipitation - 0.01 in0.3 mm - -
Hour Temp Dew Point Humidity Winds Wind Gusts Pressure Precip Precip Rate Daily Precip Total
08:20 PM 51.1°F10.6°C 40.9°F4.9°C 68% 3.8 mph NW6.1 kmh NW 5.4 mph8.7 kmh 29.70 in1005.8 mb 0.00 in0.0 mm 0.00 in0.0 mm 0.01 in0.3 mm
08:10 PM 51.1°F10.6°C 40.9°F4.9°C 68% 3.1 mph NW5.0 kmh NW 3.8 mph6.1 kmh 29.69 in1005.4 mb 0.00 in0.0 mm 0.00 in0.0 mm 0.01 in0.3 mm
08:00 PM 51.6°F10.9°C 40.6°F4.8°C 66% 2.2 mph NW3.5 kmh NW 3.1 mph5.0 kmh 29.70 in1005.8 mb 0.00 in0.0 mm 0.00 in0.0 mm 0.01 in0.3 mm
07:50 PM 52.3°F11.3°C 40.5°F4.7°C 64% 0.7 mph N1.1 kmh N 1.6 mph2.6 kmh 29.70 in1005.8 mb 0.00 in0.0 mm 0.00 in0.0 mm 0.01 in0.3 mm
07:40 PM 53.2°F11.8°C 40.6°F4.8°C 62% 0.7 mph NNW1.1 kmh NNW 4.5 mph7.2 kmh 29.69 in1005.4 mb 0.00 in0.0 mm 0.00 in0.0 mm 0.01 in0.3 mm
07:30 PM 54.3°F12.4°C 41.2°F5.1°C 61% 2.2 mph NNW3.5 kmh NNW 4.5 mph7.2 kmh 29.69 in1005.4 mb 0.00 in0.0 mm 0.00 in0.0 mm 0.01 in0.3 mm
07:20 PM 55.0°F12.8°C 39.2°F4.0°C 55% 1.6 mph N2.6 kmh N 3.1 mph5.0 kmh 29.68 in1005.1 mb 0.00 in0.0 mm 0.00 in0.0 mm 0.01 in0.3 mm
07:10 PM 55.9°F13.3°C 39.5°F4.2°C 54% 2.2 mph NW3.5 kmh NW 3.8 mph6.1 kmh 29.68 in1005.1 mb 0.00 in0.0 mm 0.00 in0.0 mm 0.01 in0.3 mm
07:00 PM 56.5°F13.6°C 39.1°F3.9°C 52% 0.7 mph NW1.1 kmh NW 4.5 mph7.2 kmh 29.67 in1004.7 mb 0.00 in0.0 mm 0.00 in0.0 mm 0.01 in0.3 mm
06:50 PM 56.7°F13.7°C 39.2°F4.0°C 52% 0.7 mph S1.1 kmh S 3.8 mph6.1 kmh 29.67 in1004.7 mb 0.00 in0.0 mm 0.00 in0.0 mm 0.01 in0.3 mm
06:40 PM 56.7°F13.7°C 39.7°F4.3°C 53% 3.1 mph SSW5.0 kmh SSW 4.5 mph7.2 kmh 29.66 in1004.4 mb 0.00 in0.0 mm 0.00 in0.0 mm 0.01 in0.3 mm
06:30 PM 56.7°F13.7°C 39.2°F4.0°C 52% 1.6 mph S2.6 kmh S 4.5 mph7.2 kmh 29.66 in1004.4 mb 0.00 in0.0 mm 0.00 in0.0 mm 0.01 in0.3 mm
06:20 PM 57.4°F14.1°C 39.4°F4.1°C 51% 3.8 mph WNW6.1 kmh WNW 10.7 mph17.2 kmh 29.65 in1004.1 mb 0.00 in0.0 mm 0.00 in0.0 mm 0.01 in0.3 mm
06:10 PM 57.7°F14.3°C 39.7°F4.3°C 51% 3.8 mph NW6.1 kmh NW 13.6 mph21.9 kmh 29.64 in1003.7 mb 0.00 in0.0 mm 0.00 in0.0 mm 0.01 in0.3 mm
06:00 PM 57.9°F14.4°C 39.9°F4.4°C 51% 10.7 mph NW17.2 kmh NW 14.5 mph23.3 kmh 29.64 in1003.7 mb 0.00 in0.0 mm 0.00 in0.0 mm 0.01 in0.3 mm
05:50 PM 57.9°F14.4°C 39.9°F4.4°C 51% 6.0 mph NW9.7 kmh NW 11.4 mph18.3 kmh 29.65 in1004.1 mb 0.00 in0.0 mm 0.00 in0.0 mm 0.01 in0.3 mm
05:40 PM 58.3°F14.6°C 39.7°F4.3°C 50% 6.9 mph NW11.1 kmh NW 14.5 mph23.3 kmh 29.63 in1003.4 mb 0.00 in0.0 mm 0.00 in0.0 mm 0.01 in0.3 mm
05:30 PM 59.4°F15.2°C 39.7°F4.3°C 48% 7.6 mph NW12.2 kmh NW 18.3 mph29.5 kmh 29.63 in1003.4 mb 0.00 in0.0 mm 0.00 in0.0 mm 0.01 in0.3 mm
05:20 PM 60.1°F15.6°C 39.8°F4.3°C 47% 13.0 mph NW20.9 kmh NW 15.2 mph24.5 kmh 29.63 in1003.4 mb 0.00 in0.0 mm 0.00 in0.0 mm 0.01 in0.3 mm
05:10 PM 60.4°F15.8°C 40.7°F4.8°C 48% 9.8 mph NW15.8 kmh NW 17.4 mph28.0 kmh 29.62 in1003.0 mb 0.00 in0.0 mm 0.00 in0.0 mm 0.01 in0.3 mm
05:00 PM 61.0°F16.1°C 40.6°F4.8°C 47% 8.3 mph NW13.4 kmh NW 22.8 mph36.7 kmh 29.62 in1003.0 mb 0.00 in0.0 mm 0.00 in0.0 mm 0.01 in0.3 mm
04:50 PM 61.5°F16.4°C 41.1°F5.1°C 47% 8.3 mph NW13.4 kmh NW 17.4 mph28.0 kmh 29.62 in1003.0 mb 0.00 in0.0 mm 0.00 in0.0 mm 0.01 in0.3 mm
04:40 PM 61.9°F16.6°C 40.9°F4.9°C 46% 12.1 mph NW19.5 kmh NW 17.4 mph28.0 kmh 29.62 in1003.0 mb 0.00 in0.0 mm 0.00 in0.0 mm 0.01 in0.3 mm
04:30 PM 62.4°F16.9°C 40.8°F4.9°C 45% 8.3 mph NW13.4 kmh NW 17.4 mph28.0 kmh 29.61 in1002.7 mb 0.00 in0.0 mm 0.00 in0.0 mm 0.01 in0.3 mm
04:20 PM 62.8°F17.1°C 41.1°F5.1°C 45% 6.9 mph NW11.1 kmh NW 13.6 mph21.9 kmh 29.61 in1002.7 mb 0.00 in0.0 mm 0.00 in0.0 mm 0.01 in0.3 mm
04:10 PM 62.6°F17.0°C 41.0°F5.0°C 45% 9.8 mph NW15.8 kmh NW 18.3 mph29.5 kmh 29.61 in1002.7 mb 0.00 in0.0 mm 0.00 in0.0 mm 0.01 in0.3 mm
04:00 PM 62.6°F17.0°C 40.4°F4.7°C 44% 13.6 mph NW21.9 kmh NW 22.1 mph35.6 kmh 29.60 in1002.4 mb 0.00 in0.0 mm 0.00 in0.0 mm 0.01 in0.3 mm
03:50 PM 63.3°F17.4°C 41.1°F5.1°C 44% 11.4 mph WNW18.3 kmh WNW 21.3 mph34.3 kmh 29.60 in1002.4 mb 0.00 in0.0 mm 0.00 in0.0 mm 0.01 in0.3 mm
03:40 PM 63.7°F17.6°C 38.9°F3.8°C 40% 15.9 mph NW25.6 kmh NW 21.3 mph34.3 kmh 29.61 in1002.7 mb 0.00 in0.0 mm 0.00 in0.0 mm 0.01 in0.3 mm
03:30 PM 64.2°F17.9°C 39.4°F4.1°C 40% 12.1 mph NW19.5 kmh NW 18.3 mph29.5 kmh 29.60 in1002.4 mb 0.00 in0.0 mm 0.00 in0.0 mm 0.01 in0.3 mm
03:20 PM 64.6°F18.1°C 39.7°F4.3°C 40% 10.7 mph NW17.2 kmh NW 17.4 mph28.0 kmh 29.61 in1002.7 mb 0.00 in0.0 mm 0.00 in0.0 mm 0.01 in0.3 mm
03:10 PM 64.2°F17.9°C 38.8°F3.8°C 39% 15.2 mph NW24.5 kmh NW 22.8 mph36.7 kmh 29.61 in1002.7 mb 0.00 in0.0 mm 0.00 in0.0 mm 0.01 in0.3 mm
03:00 PM 64.8°F18.2°C 37.9°F3.3°C 37% 11.4 mph NW18.3 kmh NW 21.3 mph34.3 kmh 29.61 in1002.7 mb 0.00 in0.0 mm 0.00 in0.0 mm 0.01 in0.3 mm
02:50 PM 64.8°F18.2°C 38.6°F3.7°C 38% 10.7 mph W17.2 kmh W 22.8 mph36.7 kmh 29.60 in1002.4 mb 0.00 in0.0 mm 0.00 in0.0 mm 0.01 in0.3 mm
02:40 PM 64.8°F18.2°C 37.9°F3.3°C 37% 13.6 mph NW21.9 kmh NW 21.3 mph34.3 kmh 29.59 in1002.0 mb 0.00 in0.0 mm 0.00 in0.0 mm 0.01 in0.3 mm
02:30 PM 65.5°F18.6°C 37.1°F2.8°C 35% 10.7 mph NW17.2 kmh NW 17.4 mph28.0 kmh 29.59 in1002.0 mb 0.00 in0.0 mm 0.00 in0.0 mm 0.01 in0.3 mm
02:20 PM 64.8°F18.2°C 35.0°F1.7°C 33% 13.0 mph NW20.9 kmh NW 22.1 mph35.6 kmh 29.60 in1002.4 mb 0.00 in0.0 mm 0.00 in0.0 mm 0.01 in0.3 mm
02:10 PM 64.9°F18.3°C 35.2°F1.8°C 33% 12.1 mph W19.5 kmh W 21.3 mph34.3 kmh 29.61 in1002.7 mb 0.00 in0.0 mm 0.00 in0.0 mm 0.01 in0.3 mm
02:00 PM 65.7°F18.7°C 35.8°F2.1°C 33% 11.4 mph W18.3 kmh W 28.2 mph45.4 kmh 29.62 in1003.0 mb 0.00 in0.0 mm 0.00 in0.0 mm 0.01 in0.3 mm
01:50 PM 65.3°F18.5°C 37.0°F2.8°C 35% 15.2 mph WNW24.5 kmh WNW 22.8 mph36.7 kmh 29.61 in1002.7 mb 0.00 in0.0 mm 0.00 in0.0 mm 0.01 in0.3 mm
01:40 PM 65.8°F18.8°C 41.5°F5.3°C 41% 6.9 mph WNW11.1 kmh WNW 19.7 mph31.7 kmh 29.61 in1002.7 mb 0.00 in0.0 mm 0.00 in0.0 mm 0.01 in0.3 mm
01:30 PM 65.3°F18.5°C 41.0°F5.0°C 41% 15.9 mph WNW25.6 kmh WNW 19.7 mph31.7 kmh 29.62 in1003.0 mb 0.00 in0.0 mm 0.00 in0.0 mm 0.01 in0.3 mm
01:20 PM 65.1°F18.4°C 40.9°F4.9°C 41% 10.7 mph WNW17.2 kmh WNW 17.4 mph28.0 kmh 29.62 in1003.0 mb 0.00 in0.0 mm 0.00 in0.0 mm 0.01 in0.3 mm
01:10 PM 64.6°F18.1°C 41.0°F5.0°C 42% 10.7 mph NW17.2 kmh NW 28.2 mph45.4 kmh 29.62 in1003.0 mb 0.00 in0.0 mm 0.00 in0.0 mm 0.01 in0.3 mm
01:00 PM 64.4°F18.0°C 42.0°F5.6°C 44% 11.4 mph WNW18.3 kmh WNW 25.9 mph41.7 kmh 29.63 in1003.4 mb 0.00 in0.0 mm 0.00 in0.0 mm 0.01 in0.3 mm
12:50 PM 65.3°F18.5°C 42.8°F6.0°C 44% 15.9 mph WNW25.6 kmh WNW 25.1 mph40.4 kmh 29.62 in1003.0 mb 0.00 in0.0 mm 0.00 in0.0 mm 0.01 in0.3 mm
12:40 PM 65.3°F18.5°C 42.8°F6.0°C 44% 8.3 mph WNW13.4 kmh WNW 22.1 mph35.6 kmh 29.62 in1003.0 mb 0.00 in0.0 mm 0.00 in0.0 mm 0.01 in0.3 mm
12:30 PM 66.0°F18.9°C 42.9°F6.1°C 43% 18.3 mph NW29.5 kmh NW 22.1 mph35.6 kmh 29.62 in1003.0 mb 0.01 in0.3 mm 0.00 in0.0 mm 0.01 in0.3 mm
12:20 PM 65.5°F18.6°C 43.6°F6.4°C 45% 10.7 mph NW17.2 kmh NW 20.6 mph33.2 kmh 29.61 in1002.7 mb 0.01 in0.3 mm 0.00 in0.0 mm 0.01 in0.3 mm
12:10 PM 65.7°F18.7°C 43.8°F6.6°C 45% 6.9 mph NW11.1 kmh NW 20.6 mph33.2 kmh 29.62 in1003.0 mb 0.01 in0.3 mm 0.00 in0.0 mm 0.01 in0.3 mm
12:00 PM 66.4°F19.1°C 43.8°F6.6°C 44% 13.6 mph NW21.9 kmh NW 20.6 mph33.2 kmh 29.62 in1003.0 mb 0.01 in0.3 mm 0.00 in0.0 mm 0.01 in0.3 mm
11:50 AM 65.5°F18.6°C 43.6°F6.4°C 45% 13.6 mph NW21.9 kmh NW 20.6 mph33.2 kmh 29.64 in1003.7 mb 0.01 in0.3 mm 0.00 in0.0 mm 0.01 in0.3 mm
11:40 AM 65.5°F18.6°C 44.7°F7.1°C 47% 10.7 mph NW17.2 kmh NW 25.1 mph40.4 kmh 29.64 in1003.7 mb 0.01 in0.3 mm 0.06 in1.5 mm 0.01 in0.3 mm
11:30 AM 65.3°F18.5°C 44.0°F6.7°C 46% 15.2 mph NW24.5 kmh NW 23.5 mph37.8 kmh 29.64 in1003.7 mb 0.00 in0.0 mm 0.00 in0.0 mm 0.00 in0.0 mm
11:20 AM 65.3°F18.5°C 45.7°F7.6°C 49% 9.8 mph NW15.8 kmh NW 19.7 mph31.7 kmh 29.65 in1004.1 mb 0.00 in0.0 mm 0.00 in0.0 mm 0.00 in0.0 mm
11:10 AM 63.3°F17.4°C 45.9°F7.7°C 53% 10.7 mph WNW17.2 kmh WNW 19.7 mph31.7 kmh 29.65 in1004.1 mb 0.00 in0.0 mm 0.00 in0.0 mm 0.00 in0.0 mm
11:00 AM 63.0°F17.2°C 45.6°F7.6°C 53% 10.7 mph NW17.2 kmh NW 22.1 mph35.6 kmh 29.65 in1004.1 mb 0.00 in0.0 mm 0.00 in0.0 mm 0.00 in0.0 mm
10:50 AM 63.3°F17.4°C 44.9°F7.2°C 51% 13.6 mph NW21.9 kmh NW 23.5 mph37.8 kmh 29.65 in1004.1 mb 0.00 in0.0 mm 0.00 in0.0 mm 0.00 in0.0 mm
10:40 AM 64.0°F17.8°C 44.0°F6.7°C 48% 16.8 mph NW27.0 kmh NW 23.5 mph37.8 kmh 29.65 in1004.1 mb 0.00 in0.0 mm 0.00 in0.0 mm 0.00 in0.0 mm
10:30 AM 64.6°F18.1°C 43.9°F6.6°C 47% 8.3 mph NW13.4 kmh NW 13.0 mph20.9 kmh 29.65 in1004.1 mb 0.00 in0.0 mm 0.00 in0.0 mm 0.00 in0.0 mm
10:20 AM 65.3°F18.5°C 43.4°F6.3°C 45% 7.6 mph WNW12.2 kmh WNW 13.0 mph20.9 kmh 29.65 in1004.1 mb 0.00 in0.0 mm 0.00 in0.0 mm 0.00 in0.0 mm
10:10 AM 63.9°F17.7°C 42.1°F5.6°C 45% 9.8 mph NW15.8 kmh NW 21.3 mph34.3 kmh 29.65 in1004.1 mb 0.00 in0.0 mm 0.00 in0.0 mm 0.00 in0.0 mm
10:00 AM 64.0°F17.8°C 42.3°F5.7°C 45% 10.7 mph NW17.2 kmh NW 15.9 mph25.6 kmh 29.65 in1004.1 mb 0.00 in0.0 mm 0.00 in0.0 mm 0.00 in0.0 mm
09:50 AM 63.0°F17.2°C 44.0°F6.7°C 50% 9.8 mph NNW15.8 kmh NNW 11.4 mph18.3 kmh 29.65 in1004.1 mb 0.00 in0.0 mm 0.00 in0.0 mm 0.00 in0.0 mm
09:40 AM 62.4°F16.9°C 44.1°F6.7°C 51% 6.0 mph NW9.7 kmh NW 14.5 mph23.3 kmh 29.65 in1004.1 mb 0.00 in0.0 mm 0.00 in0.0 mm 0.00 in0.0 mm
09:30 AM 61.7°F16.5°C 42.9°F6.1°C 50% 5.4 mph NNW8.7 kmh NNW 13.6 mph21.9 kmh 29.66 in1004.4 mb 0.00 in0.0 mm 0.00 in0.0 mm 0.00 in0.0 mm
09:20 AM 62.4°F16.9°C 43.0°F6.1°C 49% 3.1 mph NNW5.0 kmh NNW 13.6 mph21.9 kmh 29.67 in1004.7 mb 0.00 in0.0 mm 0.00 in0.0 mm 0.00 in0.0 mm
09:10 AM 62.1°F16.7°C 43.2°F6.2°C 50% 4.5 mph N7.2 kmh N 13.0 mph20.9 kmh 29.67 in1004.7 mb 0.00 in0.0 mm 0.00 in0.0 mm 0.00 in0.0 mm
09:00 AM 61.5°F16.4°C 42.2°F5.7°C 49% 5.4 mph NNW8.7 kmh NNW 14.5 mph23.3 kmh 29.68 in1005.1 mb 0.00 in0.0 mm 0.00 in0.0 mm 0.00 in0.0 mm
08:50 AM 61.2°F16.2°C 42.4°F5.8°C 50% 8.3 mph NNW13.4 kmh NNW 9.8 mph15.8 kmh 29.68 in1005.1 mb 0.00 in0.0 mm 0.00 in0.0 mm 0.00 in0.0 mm
08:40 AM 60.6°F15.9°C 41.9°F5.5°C 50% 6.9 mph NNW11.1 kmh NNW 11.4 mph18.3 kmh 29.68 in1005.1 mb 0.00 in0.0 mm 0.00 in0.0 mm 0.00 in0.0 mm
08:30 AM 59.5°F15.3°C 41.9°F5.5°C 52% 5.4 mph N8.7 kmh N 12.1 mph19.5 kmh 29.68 in1005.1 mb 0.00 in0.0 mm 0.00 in0.0 mm 0.00 in0.0 mm
08:20 AM 59.0°F15.0°C 41.4°F5.2°C 52% 7.6 mph N12.2 kmh N 9.8 mph15.8 kmh 29.68 in1005.1 mb 0.00 in0.0 mm 0.00 in0.0 mm 0.00 in0.0 mm
08:10 AM 58.5°F14.7°C 40.9°F4.9°C 52% 8.3 mph N13.4 kmh N 12.1 mph19.5 kmh 29.68 in1005.1 mb 0.00 in0.0 mm 0.00 in0.0 mm 0.00 in0.0 mm
08:00 AM 57.9°F14.4°C 40.9°F4.9°C 53% 9.8 mph N15.8 kmh N 11.4 mph18.3 kmh 29.68 in1005.1 mb 0.00 in0.0 mm 0.00 in0.0 mm 0.00 in0.0 mm
07:50 AM 57.4°F14.1°C 40.9°F4.9°C 54% 6.0 mph NNE9.7 kmh NNE 9.8 mph15.8 kmh 29.69 in1005.4 mb 0.00 in0.0 mm 0.00 in0.0 mm 0.00 in0.0 mm
07:40 AM 57.0°F13.9°C 40.5°F4.7°C 54% 6.9 mph N11.1 kmh N 9.8 mph15.8 kmh 29.69 in1005.4 mb 0.00 in0.0 mm 0.00 in0.0 mm 0.00 in0.0 mm
07:30 AM 56.8°F13.8°C 40.4°F4.7°C 54% 5.4 mph NE8.7 kmh NE 10.7 mph17.2 kmh 29.70 in1005.8 mb 0.00 in0.0 mm 0.00 in0.0 mm 0.00 in0.0 mm
07:20 AM 56.5°F13.6°C 40.0°F4.4°C 54% 4.5 mph NE7.2 kmh NE 9.8 mph15.8 kmh 29.70 in1005.8 mb 0.00 in0.0 mm 0.00 in0.0 mm 0.00 in0.0 mm
07:10 AM 55.8°F13.2°C 39.4°F4.1°C 54% 5.4 mph NNE8.7 kmh NNE 9.8 mph15.8 kmh 29.70 in1005.8 mb 0.00 in0.0 mm 0.00 in0.0 mm 0.00 in0.0 mm
07:00 AM 55.4°F13.0°C 39.0°F3.9°C 54% 6.0 mph NNE9.7 kmh NNE 9.2 mph14.8 kmh 29.70 in1005.8 mb 0.00 in0.0 mm 0.00 in0.0 mm 0.00 in0.0 mm
06:50 AM 54.9°F12.7°C 39.0°F3.9°C 55% 6.0 mph NNE9.7 kmh NNE 9.2 mph14.8 kmh 29.70 in1005.8 mb 0.00 in0.0 mm 0.00 in0.0 mm 0.00 in0.0 mm
06:40 AM 54.7°F12.6°C 38.8°F3.8°C 55% 5.4 mph N8.7 kmh N 9.2 mph14.8 kmh 29.70 in1005.8 mb 0.00 in0.0 mm 0.00 in0.0 mm 0.00 in0.0 mm
06:30 AM 54.7°F12.6°C 38.8°F3.8°C 55% 4.5 mph N7.2 kmh N 8.3 mph13.4 kmh 29.71 in1006.1 mb 0.00 in0.0 mm 0.00 in0.0 mm 0.00 in0.0 mm
06:20 AM 55.0°F12.8°C 38.7°F3.7°C 54% 3.8 mph NNE6.1 kmh NNE 9.8 mph15.8 kmh 29.70 in1005.8 mb 0.00 in0.0 mm 0.00 in0.0 mm 0.00 in0.0 mm
06:10 AM 55.2°F12.9°C 39.3°F4.1°C 55% 6.9 mph NNE11.1 kmh NNE 11.4 mph18.3 kmh 29.70 in1005.8 mb 0.00 in0.0 mm 0.00 in0.0 mm 0.00 in0.0 mm
06:00 AM 54.5°F12.5°C 40.0°F4.4°C 58% 6.9 mph NNW11.1 kmh NNW 11.4 mph18.3 kmh 29.71 in1006.1 mb 0.00 in0.0 mm 0.00 in0.0 mm 0.00 in0.0 mm
05:50 AM 54.3°F12.4°C 41.6°F5.3°C 62% 8.3 mph NW13.4 kmh NW 12.1 mph19.5 kmh 29.70 in1005.8 mb 0.00 in0.0 mm 0.00 in0.0 mm 0.00 in0.0 mm
05:40 AM 53.2°F11.8°C 41.8°F5.4°C 65% 6.9 mph NW11.1 kmh NW 9.8 mph15.8 kmh 29.70 in1005.8 mb 0.00 in0.0 mm 0.00 in0.0 mm 0.00 in0.0 mm
05:30 AM 51.6°F10.9°C 40.2°F4.6°C 65% 2.2 mph NE3.5 kmh NE 3.8 mph6.1 kmh 29.71 in1006.1 mb 0.00 in0.0 mm 0.00 in0.0 mm 0.00 in0.0 mm
05:20 AM 52.3°F11.3°C 40.5°F4.7°C 64% 2.2 mph NW3.5 kmh NW 7.6 mph12.2 kmh 29.71 in1006.1 mb 0.00 in0.0 mm 0.00 in0.0 mm 0.00 in0.0 mm
05:10 AM 52.7°F11.5°C 40.9°F4.9°C 64% 5.4 mph NNW8.7 kmh NNW 7.6 mph12.2 kmh 29.70 in1005.8 mb 0.00 in0.0 mm 0.00 in0.0 mm 0.00 in0.0 mm
05:00 AM 52.9°F11.6°C 41.0°F5.0°C 64% 5.4 mph NNW8.7 kmh NNW 9.2 mph14.8 kmh 29.70 in1005.8 mb 0.00 in0.0 mm 0.00 in0.0 mm 0.00 in0.0 mm
04:50 AM 51.1°F10.6°C 40.5°F4.7°C 67% 5.4 mph NNW8.7 kmh NNW 8.3 mph13.4 kmh 29.70 in1005.8 mb 0.00 in0.0 mm 0.00 in0.0 mm 0.00 in0.0 mm
04:40 AM 50.7°F10.4°C 39.8°F4.3°C 66% 3.8 mph NNW6.1 kmh NNW 6.9 mph11.1 kmh 29.70 in1005.8 mb 0.00 in0.0 mm 0.00 in0.0 mm 0.00 in0.0 mm
04:30 AM 50.5°F10.3°C 40.4°F4.7°C 68% 4.5 mph N7.2 kmh N 9.2 mph14.8 kmh 29.70 in1005.8 mb 0.00 in0.0 mm 0.00 in0.0 mm 0.00 in0.0 mm
04:20 AM 49.3°F9.6°C 39.2°F4.0°C 68% 3.1 mph NW5.0 kmh NW 4.5 mph7.2 kmh 29.70 in1005.8 mb 0.00 in0.0 mm 0.00 in0.0 mm 0.00 in0.0 mm
04:10 AM 50.2°F10.1°C 39.3°F4.1°C 66% 2.2 mph NNW3.5 kmh NNW 4.5 mph7.2 kmh 29.70 in1005.8 mb 0.00 in0.0 mm 0.00 in0.0 mm 0.00 in0.0 mm
04:00 AM 51.1°F10.6°C 39.7°F4.3°C 65% 3.1 mph N5.0 kmh N 5.4 mph8.7 kmh 29.70 in1005.8 mb 0.00 in0.0 mm 0.00 in0.0 mm 0.00 in0.0 mm
03:50 AM 51.1°F10.6°C 39.7°F4.3°C 65% 3.1 mph N5.0 kmh N 4.5 mph7.2 kmh 29.70 in1005.8 mb 0.00 in0.0 mm 0.00 in0.0 mm 0.00 in0.0 mm
03:40 AM 51.3°F10.7°C 40.3°F4.6°C 66% 3.1 mph N5.0 kmh N 6.0 mph9.7 kmh 29.71 in1006.1 mb 0.00 in0.0 mm 0.00 in0.0 mm 0.00 in0.0 mm
03:30 AM 49.5°F9.7°C 40.1°F4.5°C 70% 5.4 mph NNW8.7 kmh NNW 6.9 mph11.1 kmh 29.71 in1006.1 mb 0.00 in0.0 mm 0.00 in0.0 mm 0.00 in0.0 mm
03:20 AM 48.9°F9.4°C 39.2°F4.0°C 69% 3.1 mph NW5.0 kmh NW 6.0 mph9.7 kmh 29.72 in1006.4 mb 0.00 in0.0 mm 0.00 in0.0 mm 0.00 in0.0 mm
03:10 AM 50.0°F10.0°C 40.2°F4.6°C 69% 3.8 mph NW6.1 kmh NW 6.9 mph11.1 kmh 29.71 in1006.1 mb 0.00 in0.0 mm 0.00 in0.0 mm 0.00 in0.0 mm
03:00 AM 49.1°F9.5°C 39.7°F4.3°C 70% 5.4 mph NNW8.7 kmh NNW 6.0 mph9.7 kmh 29.71 in1006.1 mb 0.00 in0.0 mm 0.00 in0.0 mm 0.00 in0.0 mm
02:50 AM 48.2°F9.0°C 39.2°F4.0°C 71% 3.8 mph NNW6.1 kmh NNW 4.5 mph7.2 kmh 29.72 in1006.4 mb 0.00 in0.0 mm 0.00 in0.0 mm 0.00 in0.0 mm
02:40 AM 48.2°F9.0°C 38.9°F3.8°C 70% 3.1 mph NW5.0 kmh NW 4.5 mph7.2 kmh 29.73 in1006.8 mb 0.00 in0.0 mm 0.00 in0.0 mm 0.00 in0.0 mm
02:30 AM 48.9°F9.4°C 39.6°F4.2°C 70% 3.8 mph NW6.1 kmh NW 4.5 mph7.2 kmh 29.74 in1007.1 mb 0.00 in0.0 mm 0.00 in0.0 mm 0.00 in0.0 mm
02:20 AM 49.6°F9.8°C 39.5°F4.2°C 68% 3.8 mph NW6.1 kmh NW 4.5 mph7.2 kmh 29.73 in1006.8 mb 0.00 in0.0 mm 0.00 in0.0 mm 0.00 in0.0 mm
02:10 AM 49.8°F9.9°C 40.4°F4.7°C 70% 2.2 mph NNW3.5 kmh NNW 5.4 mph8.7 kmh 29.74 in1007.1 mb 0.00 in0.0 mm 0.00 in0.0 mm 0.00 in0.0 mm
02:00 AM 48.7°F9.3°C 39.4°F4.1°C 70% 3.1 mph NW5.0 kmh NW 3.8 mph6.1 kmh 29.74 in1007.1 mb 0.00 in0.0 mm 0.00 in0.0 mm 0.00 in0.0 mm
01:50 AM 48.4°F9.1°C 39.4°F4.1°C 71% 3.1 mph NW5.0 kmh NW 5.4 mph8.7 kmh 29.74 in1007.1 mb 0.00 in0.0 mm 0.00 in0.0 mm 0.00 in0.0 mm
01:40 AM 48.7°F9.3°C 39.4°F4.1°C 70% 3.1 mph NW5.0 kmh NW 5.4 mph8.7 kmh 29.74 in1007.1 mb 0.00 in0.0 mm 0.00 in0.0 mm 0.00 in0.0 mm
01:30 AM 49.6°F9.8°C 40.3°F4.6°C 70% 3.8 mph NW6.1 kmh NW 5.4 mph8.7 kmh 29.75 in1007.5 mb 0.00 in0.0 mm 0.00 in0.0 mm 0.00 in0.0 mm
01:20 AM 49.3°F9.6°C 39.9°F4.4°C 70% 3.1 mph NW5.0 kmh NW 5.4 mph8.7 kmh 29.74 in1007.1 mb 0.00 in0.0 mm 0.00 in0.0 mm 0.00 in0.0 mm
01:10 AM 49.1°F9.5°C 40.1°F4.5°C 71% 3.8 mph NW6.1 kmh NW 4.5 mph7.2 kmh 29.74 in1007.1 mb 0.00 in0.0 mm 0.00 in0.0 mm 0.00 in0.0 mm
01:00 AM 49.1°F9.5°C 40.1°F4.5°C 71% 3.8 mph NW6.1 kmh NW 4.5 mph7.2 kmh 29.75 in1007.5 mb 0.00 in0.0 mm 0.00 in0.0 mm 0.00 in0.0 mm
12:50 AM 48.9°F9.4°C 39.9°F4.4°C 71% 3.8 mph NW6.1 kmh NW 5.4 mph8.7 kmh 29.75 in1007.5 mb 0.00 in0.0 mm 0.00 in0.0 mm 0.00 in0.0 mm
12:40 AM 48.7°F9.3°C 40.1°F4.5°C 72% 4.5 mph NW7.2 kmh NW 6.0 mph9.7 kmh 29.75 in1007.5 mb 0.00 in0.0 mm 0.00 in0.0 mm 0.00 in0.0 mm
12:30 AM 48.7°F9.3°C 40.1°F4.5°C 72% 3.8 mph NW6.1 kmh NW 5.4 mph8.7 kmh 29.75 in1007.5 mb 0.00 in0.0 mm 0.00 in0.0 mm 0.00 in0.0 mm
12:20 AM 48.7°F9.3°C 40.1°F4.5°C 72% 3.8 mph NW6.1 kmh NW 6.0 mph9.7 kmh 29.75 in1007.5 mb 0.00 in0.0 mm 0.00 in0.0 mm 0.00 in0.0 mm
12:10 AM 48.9°F9.4°C 39.9°F4.4°C 71% 3.8 mph NW6.1 kmh NW 6.0 mph9.7 kmh 29.74 in1007.1 mb 0.00 in0.0 mm 0.00 in0.0 mm 0.00 in0.0 mm
12:00 AM 49.5°F9.7°C 40.5°F4.7°C 71% 3.8 mph NW6.1 kmh NW 5.4 mph8.7 kmh 29.75 in1007.5 mb 0.00 in0.0 mm 0.00 in0.0 mm 0.00 in0.0 mm